• Join FlightAware (Why Join?)
  • Login
  • US Flag 
03:20PM EDT


 

Airport Tracker/Info


-or-


 

Live Flight TrackerFlight Track Log ✈ SKW6526 ✈ 27-Apr-2013 ✈ KLAX - KPHX

Flight Track Log - Related Links

Times and Time Zones

All times are in EDT time to prevent confusion due to time zone crossing. See the SKW6526 flight status page for this flight to view local times or setup timezone preferences in your user account.

Time Position Orientation Groundspeed Altitude Reporting Facility
EDT Latitude Longitude Course Direction KTS MPH feet Rate Location/Type
11:12AM 33.9167 -118.4667 90° East 218 251 3,200  Level Southern California TRACON
11:12AM 33.9067 -118.4781 223° Southwest 236 272 3,800 2,460 Climbing Los Angeles Center
11:13AM 33.8303 -118.4942 190° South 271 312 6,600 2,820 Climbing Los Angeles Center
11:14AM 33.7542 -118.5111 190° South 282 325 9,700 2,460 Climbing Los Angeles Center
11:15AM 33.6586 -118.3966 116° Southeast  Level FlightAware Approximate
11:15AM 33.6819 -118.4811 161° South 305 351 11,800  Level Los Angeles Center
11:16AM 33.6334 -118.2605 90° East  Level FlightAware Approximate
11:16AM 33.6539 -118.3844 109° East 313 360 13,800  Level Los Angeles Center
11:17AM 33.6333 -118.1176 90° East  Level FlightAware Approximate
11:17AM 33.6444 -118.2511 95° East 346 398 16,600  Level Los Angeles Center
11:18AM 33.6439 -118.1386 90° East 343 395 19,000 2,220 Climbing Los Angeles Center
11:19AM 33.6439 -118.0242 90° East 345 397 21,200 2,040 Climbing Los Angeles Center
11:20AM 33.6436 -117.9078 90° East 349 402 23,200 1,800 Climbing Los Angeles Center
11:21AM 33.6436 -117.7861 90° East 360 414 25,000 1,800 Climbing Los Angeles Center
11:22AM 33.6428 -117.6367 90° East 373 429 27,000 1,500 Climbing Los Angeles Center
11:23AM 33.6419 -117.5336 91° East 385 443 28,100 1,200 Climbing Los Angeles Center
11:24AM 33.6417 -117.3756 90° East 397 457 29,500 1,260 Climbing Los Angeles Center
11:25AM 33.6408 -117.2403 90° East 406 467 30,800 1,080 Climbing Los Angeles Center
11:27AM 33.6400 -117.1019 90° East 415 478 31,800 780 Climbing Los Angeles Center
11:28AM 33.6378 -116.9575 91° East 431 496 32,400 720 Climbing Los Angeles Center
11:29AM 33.6378 -116.8031 90° East 446 513 33,300 780 Climbing Los Angeles Center
11:30AM 33.6364 -116.6544 91° East 446 513 34,300 720 Climbing Los Angeles Center
11:31AM 33.6336 -116.4728 91° East 450 518 35,000 300 Climbing Los Angeles Center
11:32AM 33.6303 -116.2917 91° East 452 520 35,000  Level Los Angeles Center
11:33AM 33.6286 -116.1436 91° East 445 512 35,000  Level Los Angeles Center
11:34AM 33.6242 -115.9972 92° East 441 507 35,000  Level Los Angeles Center
11:35AM 33.6228 -115.8506 91° East 439 505 35,000  Level Los Angeles Center
11:36AM 33.6183 -115.7025 92° East 443 510 35,000  Level Los Angeles Center
11:37AM 33.6083 -115.5519 95° East 452 520 35,000  Level Los Angeles Center
11:38AM 33.5925 -115.4011 97° East 455 524 35,000  Level Los Angeles Center
11:39AM 33.5764 -115.2214 96° East 452 520 35,000  Level Los Angeles Center
11:40AM 33.5583 -115.0386 97° East 459 528 35,000  Level Los Angeles Center
11:41AM 33.5433 -114.8853 97° East 464 534 35,000 -600 Level Los Angeles Center
11:42AM 33.5281 -114.7317 97° East 463 533 33,800 -1,560 Descending Los Angeles Center
11:43AM 33.5208 -114.6161 94° East 462 532 32,100 -2,100 Descending Albuquerque Center
11:44AM 33.5044 -114.4700 98° East 447 514 29,900 -2,400 Descending Albuquerque Center
11:45AM 33.4869 -114.3022 97° East 427 491 27,200 -2,400 Descending Albuquerque Center
11:46AM 33.4736 -114.1683 97° East 412 474 25,100 -1,140 Descending Albuquerque Center
11:47AM 33.4558 -114.0422 100° East 392 451 24,900 -540 Descending Albuquerque Center
11:48AM 33.4297 -113.9136 104° East 395 455 24,100 -840 Descending Albuquerque Center
11:49AM 33.4033 -113.7847 104° East 397 457 23,300 -900 Descending Albuquerque Center
11:50AM 33.3772 -113.6533 103° East 403 464 22,300 -1,080 Descending Albuquerque Center
11:51AM 33.3517 -113.5247 103° East 399 459 21,100 -1,260 Descending Albuquerque Center
11:52AM 33.3264 -113.4014 104° East 389 448 19,800 -1,620 Descending Albuquerque Center
11:53AM 33.2967 -113.2628 104° East 365 420 17,900 -1,560 Descending Albuquerque Center
11:54AM 33.2756 -113.1542 103° East 344 396 16,600 -1,320 Descending Albuquerque Center
11:56AM 33.2756 -113.0439 90° East 331 381 15,300 -1,440 Descending Albuquerque Center
11:57AM 33.2778 -112.9386 89° East 322 371 13,700 -1,620 Descending Albuquerque Center
11:58AM 33.2797 -112.8389 89° East 307 353 12,000 -1,560 Descending Albuquerque Center
11:59AM 33.3053 -112.7544 70° East 278 320 10,600 -1,020 Descending Albuquerque Center
12:00PM 33.3353 -112.6778 65° Northeast 263 303 10,000 -840 Descending Albuquerque Center
12:01PM 33.3681 -112.5906 66° East 255 293 8,900 -1,020 Descending Albuquerque Center
12:02PM 33.3908 -112.5283 66° East 239 275 8,000 -960 Descending Albuquerque Center
12:03PM 33.4222 -112.4439 66° East 232 267 7,000 -1,020 Descending Albuquerque Center
12:04PM 33.4292 -112.3678 84° East 231 266 6,000 -540 Descending Albuquerque Center
12:05PM 33.4383 -112.2906 82° East 235 270 6,000 -360 Level Albuquerque Center
12:06PM 33.4414 -112.2194 87° East 217 250 5,300 -1,080 Descending Albuquerque Center
12:07PM 33.4408 -112.1631 91° East 176 203 3,900 -1,380 Descending Albuquerque Center